sensor_id;sensor_type;location;lat;lon;timestamp;P1;durP1;ratioP1;P2;durP2;ratioP2
34035;SDS011;63481;52.588;22.472;2024-03-23T00:56:50;7.70;;;4.10;;
34035;SDS011;63481;52.588;22.472;2024-03-23T01:01:51;11.10;;;5.10;;
34035;SDS011;63481;52.588;22.472;2024-03-23T01:06:53;15.50;;;5.50;;
34035;SDS011;63481;52.588;22.472;2024-03-23T01:11:55;18.30;;;5.20;;
34035;SDS011;63481;52.588;22.472;2024-03-23T01:16:56;35.90;;;6.30;;
34035;SDS011;63481;52.588;22.472;2024-03-23T01:21:58;10.20;;;5.40;;
34035;SDS011;63481;52.588;22.472;2024-03-23T01:26:59;10.00;;;5.30;;
34035;SDS011;63481;52.588;22.472;2024-03-23T01:32:01;12.00;;;5.30;;
34035;SDS011;63481;52.588;22.472;2024-03-23T01:37:03;13.10;;;6.10;;
34035;SDS011;63481;52.588;22.472;2024-03-23T01:42:04;16.50;;;5.70;;
34035;SDS011;63481;52.588;22.472;2024-03-23T01:47:06;14.30;;;6.70;;
34035;SDS011;63481;52.588;22.472;2024-03-23T01:52:08;11.30;;;5.10;;
34035;SDS011;63481;52.588;22.472;2024-03-23T01:57:11;12.30;;;5.70;;
34035;SDS011;63481;52.588;22.472;2024-03-23T02:02:14;14.00;;;5.70;;
34035;SDS011;63481;52.588;22.472;2024-03-23T02:07:16;15.10;;;5.80;;
34035;SDS011;63481;52.588;22.472;2024-03-23T02:12:17;13.40;;;6.40;;
34035;SDS011;63481;52.588;22.472;2024-03-23T02:17:19;13.80;;;5.80;;
34035;SDS011;63481;52.588;22.472;2024-03-23T02:22:21;14.20;;;5.70;;
34035;SDS011;63481;52.588;22.472;2024-03-23T02:27:22;16.70;;;6.00;;
34035;SDS011;63481;52.588;22.472;2024-03-23T02:32:25;13.00;;;5.30;;
34035;SDS011;63481;52.588;22.472;2024-03-23T02:37:27;12.10;;;5.80;;
34035;SDS011;63481;52.588;22.472;2024-03-23T02:42:29;13.10;;;6.30;;
34035;SDS011;63481;52.588;22.472;2024-03-23T02:47:30;13.10;;;6.00;;
34035;SDS011;63481;52.588;22.472;2024-03-23T02:52:32;14.50;;;6.90;;
34035;SDS011;63481;52.588;22.472;2024-03-23T02:57:34;10.60;;;5.40;;
34035;SDS011;63481;52.588;22.472;2024-03-23T03:02:36;18.90;;;6.90;;
34035;SDS011;63481;52.588;22.472;2024-03-23T03:07:38;13.90;;;6.30;;
34035;SDS011;63481;52.588;22.472;2024-03-23T03:12:42;8.90;;;4.90;;
34035;SDS011;63481;52.588;22.472;2024-03-23T03:17:44;11.80;;;6.60;;
34035;SDS011;63481;52.588;22.472;2024-03-23T03:22:46;14.30;;;6.70;;
34035;SDS011;63481;52.588;22.472;2024-03-23T03:27:47;9.30;;;4.70;;
34035;SDS011;63481;52.588;22.472;2024-03-23T03:32:49;13.40;;;6.60;;
34035;SDS011;63481;52.588;22.472;2024-03-23T03:37:52;11.10;;;5.90;;
34035;SDS011;63481;52.588;22.472;2024-03-23T03:42:54;12.30;;;5.30;;
34035;SDS011;63481;52.588;22.472;2024-03-23T03:47:55;12.60;;;5.10;;
34035;SDS011;63481;52.588;22.472;2024-03-23T03:52:57;12.40;;;6.40;;
34035;SDS011;63481;52.588;22.472;2024-03-23T03:57:59;14.80;;;6.00;;
34035;SDS011;63481;52.588;22.472;2024-03-23T04:03:00;13.50;;;6.20;;
34035;SDS011;63481;52.588;22.472;2024-03-23T04:08:02;14.40;;;6.90;;
34035;SDS011;63481;52.588;22.472;2024-03-23T04:13:05;14.30;;;7.00;;
34035;SDS011;63481;52.588;22.472;2024-03-23T04:18:07;14.80;;;7.40;;
34035;SDS011;63481;52.588;22.472;2024-03-23T04:23:09;15.60;;;6.60;;
34035;SDS011;63481;52.588;22.472;2024-03-23T04:28:11;16.30;;;5.90;;
34035;SDS011;63481;52.588;22.472;2024-03-23T04:33:12;13.10;;;6.40;;
34035;SDS011;63481;52.588;22.472;2024-03-23T04:38:14;15.30;;;6.10;;
34035;SDS011;63481;52.588;22.472;2024-03-23T04:43:16;12.50;;;7.00;;
34035;SDS011;63481;52.588;22.472;2024-03-23T04:48:21;16.10;;;6.50;;
34035;SDS011;63481;52.588;22.472;2024-03-23T04:53:24;12.70;;;5.50;;
34035;SDS011;63481;52.588;22.472;2024-03-23T04:58:30;15.70;;;6.40;;
34035;SDS011;63481;52.588;22.472;2024-03-23T05:03:31;11.50;;;5.10;;
34035;SDS011;63481;52.588;22.472;2024-03-23T05:08:33;10.10;;;4.80;;
34035;SDS011;63481;52.588;22.472;2024-03-23T05:13:35;14.60;;;6.70;;
34035;SDS011;63481;52.588;22.472;2024-03-23T05:18:37;11.10;;;5.40;;
34035;SDS011;63481;52.588;22.472;2024-03-23T05:23:38;14.50;;;6.50;;
34035;SDS011;63481;52.588;22.472;2024-03-23T05:28:40;12.10;;;5.70;;
34035;SDS011;63481;52.588;22.472;2024-03-23T05:33:42;11.70;;;5.10;;
34035;SDS011;63481;52.588;22.472;2024-03-23T05:38:43;12.30;;;5.50;;
34035;SDS011;63481;52.588;22.472;2024-03-23T05:43:45;8.80;;;4.90;;
34035;SDS011;63481;52.588;22.472;2024-03-23T05:48:47;11.30;;;4.20;;
34035;SDS011;63481;52.588;22.472;2024-03-23T05:53:49;12.90;;;5.60;;
34035;SDS011;63481;52.588;22.472;2024-03-23T05:58:51;15.40;;;6.20;;
34035;SDS011;63481;52.588;22.472;2024-03-23T06:03:52;11.70;;;4.90;;
34035;SDS011;63481;52.588;22.472;2024-03-23T06:08:54;8.40;;;4.20;;
34035;SDS011;63481;52.588;22.472;2024-03-23T06:13:56;11.30;;;4.70;;
34035;SDS011;63481;52.588;22.472;2024-03-23T06:18:57;9.80;;;4.40;;
34035;SDS011;63481;52.588;22.472;2024-03-23T06:24:00;9.40;;;4.10;;
34035;SDS011;63481;52.588;22.472;2024-03-23T06:29:01;12.50;;;4.60;;
34035;SDS011;63481;52.588;22.472;2024-03-23T06:34:03;8.70;;;4.00;;
34035;SDS011;63481;52.588;22.472;2024-03-23T06:39:04;10.90;;;4.00;;
34035;SDS011;63481;52.588;22.472;2024-03-23T06:44:06;14.30;;;5.20;;
34035;SDS011;63481;52.588;22.472;2024-03-23T06:49:08;10.10;;;3.60;;
34035;SDS011;63481;52.588;22.472;2024-03-23T06:54:10;10.80;;;4.70;;
34035;SDS011;63481;52.588;22.472;2024-03-23T06:59:12;9.70;;;4.50;;
34035;SDS011;63481;52.588;22.472;2024-03-23T07:04:13;8.50;;;4.10;;
34035;SDS011;63481;52.588;22.472;2024-03-23T07:09:15;12.50;;;5.50;;
34035;SDS011;63481;52.588;22.472;2024-03-23T07:14:17;11.20;;;5.50;;
34035;SDS011;63481;52.588;22.472;2024-03-23T07:19:18;13.60;;;6.10;;
34035;SDS011;63481;52.588;22.472;2024-03-23T07:24:20;10.50;;;4.80;;
34035;SDS011;63481;52.588;22.472;2024-03-23T07:29:21;11.70;;;5.60;;
34035;SDS011;63481;52.588;22.472;2024-03-23T07:34:24;14.20;;;5.50;;
34035;SDS011;63481;52.588;22.472;2024-03-23T07:39:26;14.20;;;6.00;;
34035;SDS011;63481;52.588;22.472;2024-03-23T07:44:29;11.00;;;4.30;;
34035;SDS011;63481;52.588;22.472;2024-03-23T07:49:30;11.20;;;5.10;;
34035;SDS011;63481;52.588;22.472;2024-03-23T07:54:32;12.30;;;5.50;;
34035;SDS011;63481;52.588;22.472;2024-03-23T07:59:33;12.00;;;4.90;;
34035;SDS011;63481;52.588;22.472;2024-03-23T08:04:35;13.70;;;6.20;;
34035;SDS011;63481;52.588;22.472;2024-03-23T08:09:37;11.50;;;4.90;;
34035;SDS011;63481;52.588;22.472;2024-03-23T08:14:38;8.30;;;4.20;;
34035;SDS011;63481;52.588;22.472;2024-03-23T08:19:40;8.50;;;4.60;;
34035;SDS011;63481;52.588;22.472;2024-03-23T08:24:41;10.40;;;5.30;;
34035;SDS011;63481;52.588;22.472;2024-03-23T08:29:45;11.60;;;4.40;;
34035;SDS011;63481;52.588;22.472;2024-03-23T08:34:47;9.70;;;4.20;;
34035;SDS011;63481;52.588;22.472;2024-03-23T08:39:48;9.70;;;4.00;;
34035;SDS011;63481;52.588;22.472;2024-03-23T08:44:52;12.10;;;5.20;;
34035;SDS011;63481;52.588;22.472;2024-03-23T08:49:54;9.90;;;4.70;;
34035;SDS011;63481;52.588;22.472;2024-03-23T08:54:56;9.10;;;4.30;;
34035;SDS011;63481;52.588;22.472;2024-03-23T08:59:58;10.30;;;4.10;;
34035;SDS011;63481;52.588;22.472;2024-03-23T09:05:00;9.50;;;4.60;;
34035;SDS011;63481;52.588;22.472;2024-03-23T09:10:06;14.50;;;5.70;;
34035;SDS011;63481;52.588;22.472;2024-03-23T09:15:08;11.40;;;5.70;;
34035;SDS011;63481;52.588;22.472;2024-03-23T09:20:10;15.90;;;6.20;;
34035;SDS011;63481;52.588;22.472;2024-03-23T09:25:12;18.10;;;7.40;;
34035;SDS011;63481;52.588;22.472;2024-03-23T09:30:14;22.60;;;8.20;;
34035;SDS011;63481;52.588;22.472;2024-03-23T09:35:16;22.60;;;8.40;;
34035;SDS011;63481;52.588;22.472;2024-03-23T09:40:18;15.60;;;6.60;;
34035;SDS011;63481;52.588;22.472;2024-03-23T09:45:20;19.60;;;8.40;;
34035;SDS011;63481;52.588;22.472;2024-03-23T09:50:23;14.80;;;6.90;;
34035;SDS011;63481;52.588;22.472;2024-03-23T09:55:25;19.50;;;7.60;;
34035;SDS011;63481;52.588;22.472;2024-03-23T10:00:27;19.40;;;8.00;;
34035;SDS011;63481;52.588;22.472;2024-03-23T10:05:29;20.00;;;8.50;;
34035;SDS011;63481;52.588;22.472;2024-03-23T10:10:33;13.50;;;6.40;;
34035;SDS011;63481;52.588;22.472;2024-03-23T10:15:35;19.70;;;7.30;;
34035;SDS011;63481;52.588;22.472;2024-03-23T10:20:38;12.80;;;6.10;;
34035;SDS011;63481;52.588;22.472;2024-03-23T10:25:39;11.60;;;5.50;;
34035;SDS011;63481;52.588;22.472;2024-03-23T10:30:41;11.10;;;6.00;;
34035;SDS011;63481;52.588;22.472;2024-03-23T10:35:43;11.60;;;4.90;;
34035;SDS011;63481;52.588;22.472;2024-03-23T10:40:45;11.30;;;4.70;;
34035;SDS011;63481;52.588;22.472;2024-03-23T10:45:46;8.80;;;3.60;;
34035;SDS011;63481;52.588;22.472;2024-03-23T10:50:48;9.90;;;4.30;;
34035;SDS011;63481;52.588;22.472;2024-03-23T10:55:50;9.70;;;4.30;;
34035;SDS011;63481;52.588;22.472;2024-03-23T11:00:53;11.20;;;4.20;;
34035;SDS011;63481;52.588;22.472;2024-03-23T11:05:55;11.20;;;5.50;;
34035;SDS011;63481;52.588;22.472;2024-03-23T11:16:22;13.70;;;5.50;;
34035;SDS011;63481;52.588;22.472;2024-03-23T11:21:51;12.00;;;5.30;;
34035;SDS011;63481;52.588;22.472;2024-03-23T11:26:54;11.10;;;5.20;;
34035;SDS011;63481;52.588;22.472;2024-03-23T11:31:56;13.20;;;5.00;;
34035;SDS011;63481;52.588;22.472;2024-03-23T11:37:05;13.80;;;5.20;;
34035;SDS011;63481;52.588;22.472;2024-03-23T11:42:07;10.40;;;4.90;;
34035;SDS011;63481;52.588;22.472;2024-03-23T11:47:09;10.90;;;4.70;;
34035;SDS011;63481;52.588;22.472;2024-03-23T11:52:12;16.80;;;4.70;;
34035;SDS011;63481;52.588;22.472;2024-03-23T11:57:14;14.20;;;5.70;;
34035;SDS011;63481;52.588;22.472;2024-03-23T12:02:16;11.50;;;5.30;;
34035;SDS011;63481;52.588;22.472;2024-03-23T12:07:20;12.10;;;4.80;;
34035;SDS011;63481;52.588;22.472;2024-03-23T12:12:23;8.90;;;5.00;;
34035;SDS011;63481;52.588;22.472;2024-03-23T12:17:25;9.60;;;5.20;;
34035;SDS011;63481;52.588;22.472;2024-03-23T12:22:27;12.70;;;5.90;;
34035;SDS011;63481;52.588;22.472;2024-03-23T12:27:30;15.90;;;4.90;;
34035;SDS011;63481;52.588;22.472;2024-03-23T12:32:32;10.50;;;6.00;;
34035;SDS011;63481;52.588;22.472;2024-03-23T12:37:33;11.50;;;6.10;;
34035;SDS011;63481;52.588;22.472;2024-03-23T12:42:35;13.10;;;5.40;;
34035;SDS011;63481;52.588;22.472;2024-03-23T12:47:37;10.80;;;5.00;;
34035;SDS011;63481;52.588;22.472;2024-03-23T12:52:38;9.80;;;4.60;;
34035;SDS011;63481;52.588;22.472;2024-03-23T12:57:40;8.50;;;4.60;;
34035;SDS011;63481;52.588;22.472;2024-03-23T13:02:42;11.60;;;6.50;;
34035;SDS011;63481;52.588;22.472;2024-03-23T13:07:44;11.40;;;5.70;;
34035;SDS011;63481;52.588;22.472;2024-03-23T13:12:46;10.70;;;5.50;;
34035;SDS011;63481;52.588;22.472;2024-03-23T13:17:47;13.20;;;5.50;;
34035;SDS011;63481;52.588;22.472;2024-03-23T13:22:49;11.10;;;5.70;;
34035;SDS011;63481;52.588;22.472;2024-03-23T13:27:52;10.80;;;5.50;;
34035;SDS011;63481;52.588;22.472;2024-03-23T13:32:54;10.40;;;5.60;;
34035;SDS011;63481;52.588;22.472;2024-03-23T13:37:56;10.10;;;5.00;;
34035;SDS011;63481;52.588;22.472;2024-03-23T13:42:57;10.20;;;5.00;;
34035;SDS011;63481;52.588;22.472;2024-03-23T13:47:59;8.90;;;4.80;;
34035;SDS011;63481;52.588;22.472;2024-03-23T13:53:01;11.00;;;4.80;;
34035;SDS011;63481;52.588;22.472;2024-03-23T13:58:02;9.40;;;5.00;;
34035;SDS011;63481;52.588;22.472;2024-03-23T14:03:05;12.10;;;4.50;;
34035;SDS011;63481;52.588;22.472;2024-03-23T14:08:07;10.00;;;4.60;;
34035;SDS011;63481;52.588;22.472;2024-03-23T14:13:09;12.00;;;4.80;;
34035;SDS011;63481;52.588;22.472;2024-03-23T14:18:11;6.80;;;3.90;;
34035;SDS011;63481;52.588;22.472;2024-03-23T14:23:15;9.30;;;3.90;;
34035;SDS011;63481;52.588;22.472;2024-03-23T14:28:17;8.60;;;5.10;;
34035;SDS011;63481;52.588;22.472;2024-03-23T14:33:19;9.90;;;4.20;;
34035;SDS011;63481;52.588;22.472;2024-03-23T14:38:20;7.40;;;4.30;;
34035;SDS011;63481;52.588;22.472;2024-03-23T14:43:22;15.70;;;4.70;;
34035;SDS011;63481;52.588;22.472;2024-03-23T14:48:24;11.80;;;5.00;;
34035;SDS011;63481;52.588;22.472;2024-03-23T14:53:26;12.10;;;5.10;;
34035;SDS011;63481;52.588;22.472;2024-03-23T14:58:31;11.40;;;4.80;;
34035;SDS011;63481;52.588;22.472;2024-03-23T15:03:33;11.20;;;4.50;;
34035;SDS011;63481;52.588;22.472;2024-03-23T15:08:35;12.20;;;4.90;;
34035;SDS011;63481;52.588;22.472;2024-03-23T15:13:38;12.60;;;5.40;;
34035;SDS011;63481;52.588;22.472;2024-03-23T15:18:40;12.70;;;5.10;;
34035;SDS011;63481;52.588;22.472;2024-03-23T15:23:41;11.70;;;5.90;;
34035;SDS011;63481;52.588;22.472;2024-03-23T15:28:47;8.70;;;4.20;;
34035;SDS011;63481;52.588;22.472;2024-03-23T15:33:59;13.20;;;6.90;;
34035;SDS011;63481;52.588;22.472;2024-03-23T15:39:00;13.90;;;6.20;;
34035;SDS011;63481;52.588;22.472;2024-03-23T15:44:02;14.60;;;6.10;;
34035;SDS011;63481;52.588;22.472;2024-03-23T15:49:04;13.70;;;7.10;;
34035;SDS011;63481;52.588;22.472;2024-03-23T15:54:06;16.80;;;7.20;;
34035;SDS011;63481;52.588;22.472;2024-03-23T15:59:07;15.40;;;6.30;;
34035;SDS011;63481;52.588;22.472;2024-03-23T16:04:09;12.20;;;6.60;;
34035;SDS011;63481;52.588;22.472;2024-03-23T16:09:11;13.50;;;5.80;;
34035;SDS011;63481;52.588;22.472;2024-03-23T16:14:12;9.80;;;4.80;;
34035;SDS011;63481;52.588;22.472;2024-03-23T16:19:14;14.00;;;5.20;;
34035;SDS011;63481;52.588;22.472;2024-03-23T16:24:16;10.40;;;5.80;;
34035;SDS011;63481;52.588;22.472;2024-03-23T16:29:17;12.60;;;5.40;;
34035;SDS011;63481;52.588;22.472;2024-03-23T16:34:20;10.90;;;5.00;;
34035;SDS011;63481;52.588;22.472;2024-03-23T16:39:21;26.70;;;10.90;;
34035;SDS011;63481;52.588;22.472;2024-03-23T16:44:23;31.40;;;13.10;;
34035;SDS011;63481;52.588;22.472;2024-03-23T16:49:24;12.30;;;5.80;;
34035;SDS011;63481;52.588;22.472;2024-03-23T16:54:26;11.40;;;5.90;;
34035;SDS011;63481;52.588;22.472;2024-03-23T16:59:28;10.30;;;4.90;;
34035;SDS011;63481;52.588;22.472;2024-03-23T17:04:30;4.60;;;2.70;;
34035;SDS011;63481;52.588;22.472;2024-03-23T17:09:32;5.30;;;2.30;;
34035;SDS011;63481;52.588;22.472;2024-03-23T17:14:33;2.40;;;1.60;;
34035;SDS011;63481;52.588;22.472;2024-03-23T17:19:35;1.60;;;1.50;;
34035;SDS011;63481;52.588;22.472;2024-03-23T17:24:37;1.60;;;1.40;;
34035;SDS011;63481;52.588;22.472;2024-03-23T17:29:38;7.00;;;2.10;;
34035;SDS011;63481;52.588;22.472;2024-03-23T17:34:40;6.50;;;3.10;;
34035;SDS011;63481;52.588;22.472;2024-03-23T17:39:42;5.10;;;3.10;;
34035;SDS011;63481;52.588;22.472;2024-03-23T17:44:43;3.90;;;2.40;;
34035;SDS011;63481;52.588;22.472;2024-03-23T17:49:45;3.70;;;2.10;;
34035;SDS011;63481;52.588;22.472;2024-03-23T17:54:47;3.80;;;2.40;;
34035;SDS011;63481;52.588;22.472;2024-03-23T17:59:50;4.00;;;2.70;;
34035;SDS011;63481;52.588;22.472;2024-03-23T18:04:52;4.00;;;2.10;;
34035;SDS011;63481;52.588;22.472;2024-03-23T18:09:54;48.40;;;22.10;;
34035;SDS011;63481;52.588;22.472;2024-03-23T18:14:56;18.80;;;8.90;;
34035;SDS011;63481;52.588;22.472;2024-03-23T18:19:58;10.10;;;5.50;;
34035;SDS011;63481;52.588;22.472;2024-03-23T18:25:00;9.20;;;4.70;;
34035;SDS011;63481;52.588;22.472;2024-03-23T18:30:02;11.20;;;5.60;;
34035;SDS011;63481;52.588;22.472;2024-03-23T18:35:05;17.10;;;9.80;;
34035;SDS011;63481;52.588;22.472;2024-03-23T18:45:11;9.20;;;3.90;;
34035;SDS011;63481;52.588;22.472;2024-03-23T18:50:12;12.10;;;4.90;;
34035;SDS011;63481;52.588;22.472;2024-03-23T18:55:14;22.30;;;10.80;;
34035;SDS011;63481;52.588;22.472;2024-03-23T19:00:16;13.20;;;5.60;;
34035;SDS011;63481;52.588;22.472;2024-03-23T19:05:18;4.30;;;2.20;;
34035;SDS011;63481;52.588;22.472;2024-03-23T19:10:19;5.90;;;2.60;;
34035;SDS011;63481;52.588;22.472;2024-03-23T19:15:22;3.50;;;1.90;;
34035;SDS011;63481;52.588;22.472;2024-03-23T19:20:24;2.80;;;1.80;;
34035;SDS011;63481;52.588;22.472;2024-03-23T19:25:26;8.00;;;3.50;;
34035;SDS011;63481;52.588;22.472;2024-03-23T19:30:29;12.10;;;5.40;;
34035;SDS011;63481;52.588;22.472;2024-03-23T19:35:31;3.70;;;2.40;;
34035;SDS011;63481;52.588;22.472;2024-03-23T19:40:33;10.10;;;3.40;;
34035;SDS011;63481;52.588;22.472;2024-03-23T19:45:38;6.00;;;2.80;;
34035;SDS011;63481;52.588;22.472;2024-03-23T19:50:39;5.80;;;2.90;;
34035;SDS011;63481;52.588;22.472;2024-03-23T19:55:43;6.10;;;3.30;;
34035;SDS011;63481;52.588;22.472;2024-03-23T20:00:45;6.20;;;3.10;;
34035;SDS011;63481;52.588;22.472;2024-03-23T20:05:56;9.20;;;3.70;;
34035;SDS011;63481;52.588;22.472;2024-03-23T20:10:58;5.40;;;2.70;;
34035;SDS011;63481;52.588;22.472;2024-03-23T20:16:00;5.80;;;2.90;;
34035;SDS011;63481;52.588;22.472;2024-03-23T20:21:05;5.80;;;3.50;;
34035;SDS011;63481;52.588;22.472;2024-03-23T20:26:06;6.30;;;3.50;;
34035;SDS011;63481;52.588;22.472;2024-03-23T20:31:08;4.70;;;2.90;;
34035;SDS011;63481;52.588;22.472;2024-03-23T20:36:10;7.90;;;3.00;;
34035;SDS011;63481;52.588;22.472;2024-03-23T20:41:12;2.90;;;1.60;;
34035;SDS011;63481;52.588;22.472;2024-03-23T20:46:14;2.20;;;1.10;;
34035;SDS011;63481;52.588;22.472;2024-03-23T20:51:17;1.40;;;1.20;;
34035;SDS011;63481;52.588;22.472;2024-03-23T20:56:19;4.40;;;1.20;;
34035;SDS011;63481;52.588;22.472;2024-03-23T21:01:20;1.00;;;1.00;;
34035;SDS011;63481;52.588;22.472;2024-03-23T21:06:23;1.20;;;1.20;;
34035;SDS011;63481;52.588;22.472;2024-03-23T21:11:25;1.00;;;1.00;;
34035;SDS011;63481;52.588;22.472;2024-03-23T21:16:27;1.00;;;1.00;;
34035;SDS011;63481;52.588;22.472;2024-03-23T21:21:28;1.30;;;1.20;;
34035;SDS011;63481;52.588;22.472;2024-03-23T21:26:32;0.90;;;0.90;;
34035;SDS011;63481;52.588;22.472;2024-03-23T21:31:33;1.20;;;0.90;;
34035;SDS011;63481;52.588;22.472;2024-03-23T21:36:35;1.10;;;1.10;;
34035;SDS011;63481;52.588;22.472;2024-03-23T21:41:37;1.30;;;0.90;;
34035;SDS011;63481;52.588;22.472;2024-03-23T21:46:38;0.80;;;0.80;;
34035;SDS011;63481;52.588;22.472;2024-03-23T21:51:40;1.10;;;0.90;;
34035;SDS011;63481;52.588;22.472;2024-03-23T21:56:42;1.00;;;0.90;;
34035;SDS011;63481;52.588;22.472;2024-03-23T22:01:43;1.20;;;1.10;;
34035;SDS011;63481;52.588;22.472;2024-03-23T22:06:45;1.10;;;1.10;;
34035;SDS011;63481;52.588;22.472;2024-03-23T22:11:46;1.20;;;1.10;;
34035;SDS011;63481;52.588;22.472;2024-03-23T22:16:48;1.50;;;1.00;;
34035;SDS011;63481;52.588;22.472;2024-03-23T22:21:50;1.70;;;1.30;;
34035;SDS011;63481;52.588;22.472;2024-03-23T22:26:52;1.10;;;1.10;;
34035;SDS011;63481;52.588;22.472;2024-03-23T22:31:54;2.20;;;1.30;;
34035;SDS011;63481;52.588;22.472;2024-03-23T22:36:56;1.50;;;1.30;;
34035;SDS011;63481;52.588;22.472;2024-03-23T22:41:57;2.70;;;1.80;;
34035;SDS011;63481;52.588;22.472;2024-03-23T22:46:59;2.60;;;1.70;;
34035;SDS011;63481;52.588;22.472;2024-03-23T22:52:01;1.60;;;1.40;;
34035;SDS011;63481;52.588;22.472;2024-03-23T22:57:03;1.50;;;1.40;;
34035;SDS011;63481;52.588;22.472;2024-03-23T23:02:05;3.80;;;1.70;;
34035;SDS011;63481;52.588;22.472;2024-03-23T23:07:06;1.80;;;1.60;;
34035;SDS011;63481;52.588;22.472;2024-03-23T23:12:08;3.40;;;2.10;;
34035;SDS011;63481;52.588;22.472;2024-03-23T23:17:10;2.00;;;1.60;;
34035;SDS011;63481;52.588;22.472;2024-03-23T23:22:12;2.40;;;1.40;;
34035;SDS011;63481;52.588;22.472;2024-03-23T23:27:13;1.50;;;1.40;;
34035;SDS011;63481;52.588;22.472;2024-03-23T23:32:15;3.20;;;1.80;;
34035;SDS011;63481;52.588;22.472;2024-03-23T23:37:17;6.00;;;1.90;;
34035;SDS011;63481;52.588;22.472;2024-03-23T23:42:18;2.10;;;1.80;;
34035;SDS011;63481;52.588;22.472;2024-03-23T23:47:20;6.20;;;2.00;;
34035;SDS011;63481;52.588;22.472;2024-03-23T23:52:22;2.80;;;1.60;;
34035;SDS011;63481;52.588;22.472;2024-03-23T23:57:24;2.70;;;1.70;;
